Outlook, MT

9:18 PM MST on December 28, 2014 (GMT -0700)
Crosby | Change Station
CLOSE
Current Station
Airport
Location: Crosby,
Elevation: 1949 ft
Nearby Weather Stations
Active Advisory: Wind Chill Advisory

Elev 1949 ft 48.93 °N, 103.30 °W | Updated 23 minutes ago

Mostly Cloudy
Mostly Cloudy
-8 °F
Feels Like -26 °F
N
10
Wind Variable Wind from NNW

Today
High -- | Low -- °F
--% Chance of Precip.
Yesterday
High -- | Low -- °F
Precip. -- in
7:52 AM 4:09 PM
First Quarter, 54% visible
Pressure 30.47 in
Visibility 10.0 miles
Clouds Clear
Windchill -26 °F
Dew Point -13 °F
Humidity 77%
Rainfall 0.03 in
Snow Depth Not available.
UV 0 out of 12
Pollen .10 out of 12
Air Quality Not available.
Flu Activity Not available.
METAR KD50 290355Z AUTO 33009KT 10SM CLR M22/M25 A3047 RMK AO2

More Conditions Fewer Conditions

Pressure 30.47 in
Visibility 10.0 miles
Clouds Clear
Windchill -26 °F
Dew Point -13 °F
Humidity 77%
Rainfall 0.03 in
Snow Depth Not available.
UV 0 out of 12
Pollen .10 out of 12
Air Quality Not available.
Flu Activity Not available.
METAR KD50 290355Z AUTO 33009KT 10SM CLR M22/M25 A3047 RMK AO2

More Conditions Fewer Conditions

10-Day Weather Forecast

Almanac

Astronomy

Dec. 28, 2014 Rise Set
Actual Time
Civil Twilight
Nautical Twilight
Astronomical Twilight
Moon
Length of Visible Light
Length of Day
Tomorrow will be .
, % of the Moon is Illuminated

Today's Extremes

State Highs State Lows

Community

WunderPhotos

Upload Photos

1,781,533 photos uploaded!

WunderBlogs® & News

Nearby

Air Quality

  Air Quality AQ Index Pollutant
Not available.

Snow Depth

Station Depth Elevation

Earthquake Activity

City Distance Mag. Time & Date
Minimum magnitude displayed is 2.5.

Coastal Water Temperatures

Place Temperature

Nearby Weather Stations